sensor_id;sensor_type;location;lat;lon;timestamp;P1;durP1;ratioP1;P2;durP2;ratioP2
14205;SDS011;7186;48.800;9.216;2023-08-30T00:02:19;45.63;;;26.50;;
14205;SDS011;7186;48.800;9.216;2023-08-30T00:04:44;45.47;;;26.47;;
14205;SDS011;7186;48.800;9.216;2023-08-30T00:07:10;45.07;;;26.10;;
14205;SDS011;7186;48.800;9.216;2023-08-30T00:09:36;46.30;;;27.13;;
14205;SDS011;7186;48.800;9.216;2023-08-30T00:12:01;45.60;;;26.33;;
14205;SDS011;7186;48.800;9.216;2023-08-30T00:14:26;45.60;;;26.10;;
14205;SDS011;7186;48.800;9.216;2023-08-30T00:16:52;46.03;;;26.50;;
14205;SDS011;7186;48.800;9.216;2023-08-30T00:19:17;46.33;;;26.90;;
14205;SDS011;7186;48.800;9.216;2023-08-30T00:21:42;45.80;;;26.07;;
14205;SDS011;7186;48.800;9.216;2023-08-30T00:24:07;46.70;;;27.10;;
14205;SDS011;7186;48.800;9.216;2023-08-30T00:26:33;46.13;;;26.33;;
14205;SDS011;7186;48.800;9.216;2023-08-30T00:28:58;46.33;;;26.90;;
14205;SDS011;7186;48.800;9.216;2023-08-30T00:31:23;46.27;;;26.30;;
14205;SDS011;7186;48.800;9.216;2023-08-30T00:33:48;46.50;;;26.80;;
14205;SDS011;7186;48.800;9.216;2023-08-30T00:36:14;47.23;;;26.87;;
14205;SDS011;7186;48.800;9.216;2023-08-30T00:38:39;46.87;;;26.60;;
14205;SDS011;7186;48.800;9.216;2023-08-30T00:41:04;47.23;;;27.00;;
14205;SDS011;7186;48.800;9.216;2023-08-30T00:43:29;47.43;;;27.20;;
14205;SDS011;7186;48.800;9.216;2023-08-30T00:45:55;47.43;;;27.17;;
14205;SDS011;7186;48.800;9.216;2023-08-30T00:48:20;47.07;;;26.67;;
14205;SDS011;7186;48.800;9.216;2023-08-30T00:50:46;47.17;;;26.90;;
14205;SDS011;7186;48.800;9.216;2023-08-30T00:53:11;46.37;;;26.27;;
14205;SDS011;7186;48.800;9.216;2023-08-30T00:55:37;46.60;;;26.47;;
14205;SDS011;7186;48.800;9.216;2023-08-30T00:58:02;46.63;;;26.47;;
14205;SDS011;7186;48.800;9.216;2023-08-30T01:00:29;46.30;;;26.10;;
14205;SDS011;7186;48.800;9.216;2023-08-30T01:02:55;46.70;;;26.60;;
14205;SDS011;7186;48.800;9.216;2023-08-30T01:05:20;46.37;;;26.23;;
14205;SDS011;7186;48.800;9.216;2023-08-30T01:07:45;46.40;;;26.13;;
14205;SDS011;7186;48.800;9.216;2023-08-30T01:10:11;46.27;;;26.27;;
14205;SDS011;7186;48.800;9.216;2023-08-30T01:12:37;46.37;;;26.43;;
14205;SDS011;7186;48.800;9.216;2023-08-30T01:17:59;46.43;;;26.53;;
14205;SDS011;7186;48.800;9.216;2023-08-30T01:20:25;46.97;;;27.23;;
14205;SDS011;7186;48.800;9.216;2023-08-30T01:22:58;47.00;;;27.60;;
14205;SDS011;7186;48.800;9.216;2023-08-30T01:25:31;47.43;;;27.73;;
14205;SDS011;7186;48.800;9.216;2023-08-30T01:27:58;46.67;;;27.47;;
14205;SDS011;7186;48.800;9.216;2023-08-30T01:30:23;47.00;;;27.80;;
14205;SDS011;7186;48.800;9.216;2023-08-30T01:32:49;46.60;;;27.33;;
14205;SDS011;7186;48.800;9.216;2023-08-30T01:35:15;46.40;;;27.10;;
14205;SDS011;7186;48.800;9.216;2023-08-30T01:37:43;46.33;;;27.27;;
14205;SDS011;7186;48.800;9.216;2023-08-30T01:40:09;46.47;;;27.40;;
14205;SDS011;7186;48.800;9.216;2023-08-30T01:42:35;46.47;;;27.27;;
14205;SDS011;7186;48.800;9.216;2023-08-30T01:45:01;46.07;;;26.87;;
14205;SDS011;7186;48.800;9.216;2023-08-30T01:47:28;46.50;;;27.27;;
14205;SDS011;7186;48.800;9.216;2023-08-30T01:49:54;46.57;;;27.80;;
14205;SDS011;7186;48.800;9.216;2023-08-30T01:52:20;45.73;;;27.17;;
14205;SDS011;7186;48.800;9.216;2023-08-30T01:54:46;46.50;;;27.47;;
14205;SDS011;7186;48.800;9.216;2023-08-30T01:57:11;46.60;;;27.77;;
14205;SDS011;7186;48.800;9.216;2023-08-30T01:59:36;47.50;;;27.90;;
14205;SDS011;7186;48.800;9.216;2023-08-30T02:02:01;46.53;;;27.33;;
14205;SDS011;7186;48.800;9.216;2023-08-30T02:04:29;46.53;;;27.43;;
14205;SDS011;7186;48.800;9.216;2023-08-30T02:06:57;46.80;;;27.30;;
14205;SDS011;7186;48.800;9.216;2023-08-30T02:09:35;45.80;;;27.37;;
14205;SDS011;7186;48.800;9.216;2023-08-30T02:12:04;46.70;;;28.23;;
14205;SDS011;7186;48.800;9.216;2023-08-30T02:14:30;45.60;;;26.73;;
14205;SDS011;7186;48.800;9.216;2023-08-30T02:16:57;45.90;;;27.37;;
14205;SDS011;7186;48.800;9.216;2023-08-30T02:19:22;46.10;;;27.33;;
14205;SDS011;7186;48.800;9.216;2023-08-30T02:21:47;45.97;;;26.93;;
14205;SDS011;7186;48.800;9.216;2023-08-30T02:24:13;46.67;;;27.67;;
14205;SDS011;7186;48.800;9.216;2023-08-30T02:26:38;46.47;;;27.23;;
14205;SDS011;7186;48.800;9.216;2023-08-30T02:29:03;46.03;;;27.60;;
14205;SDS011;7186;48.800;9.216;2023-08-30T02:31:29;45.53;;;26.87;;
14205;SDS011;7186;48.800;9.216;2023-08-30T02:33:54;45.80;;;27.23;;
14205;SDS011;7186;48.800;9.216;2023-08-30T02:36:19;45.40;;;27.43;;
14205;SDS011;7186;48.800;9.216;2023-08-30T02:38:44;45.90;;;27.90;;
14205;SDS011;7186;48.800;9.216;2023-08-30T02:41:09;45.27;;;27.60;;
14205;SDS011;7186;48.800;9.216;2023-08-30T02:43:35;42.93;;;26.97;;
14205;SDS011;7186;48.800;9.216;2023-08-30T02:46:00;43.70;;;27.33;;
14205;SDS011;7186;48.800;9.216;2023-08-30T02:48:26;43.03;;;27.57;;
14205;SDS011;7186;48.800;9.216;2023-08-30T02:50:51;42.67;;;27.23;;
14205;SDS011;7186;48.800;9.216;2023-08-30T02:53:17;44.07;;;27.07;;
14205;SDS011;7186;48.800;9.216;2023-08-30T02:55:42;44.13;;;26.77;;
14205;SDS011;7186;48.800;9.216;2023-08-30T02:58:07;44.10;;;26.80;;
14205;SDS011;7186;48.800;9.216;2023-08-30T03:00:32;41.50;;;27.03;;
14205;SDS011;7186;48.800;9.216;2023-08-30T03:02:59;46.87;;;27.27;;
14205;SDS011;7186;48.800;9.216;2023-08-30T03:05:24;48.60;;;27.77;;
14205;SDS011;7186;48.800;9.216;2023-08-30T03:07:50;48.57;;;27.50;;
14205;SDS011;7186;48.800;9.216;2023-08-30T03:10:16;48.63;;;27.43;;
14205;SDS011;7186;48.800;9.216;2023-08-30T03:12:41;49.23;;;28.13;;
14205;SDS011;7186;48.800;9.216;2023-08-30T03:15:06;48.77;;;27.53;;
14205;SDS011;7186;48.800;9.216;2023-08-30T03:17:32;48.20;;;27.00;;
14205;SDS011;7186;48.800;9.216;2023-08-30T03:19:57;48.97;;;27.77;;
14205;SDS011;7186;48.800;9.216;2023-08-30T03:22:23;49.00;;;27.80;;
14205;SDS011;7186;48.800;9.216;2023-08-30T03:24:48;48.70;;;27.80;;
14205;SDS011;7186;48.800;9.216;2023-08-30T03:27:14;48.50;;;27.60;;
14205;SDS011;7186;48.800;9.216;2023-08-30T03:29:39;48.60;;;27.63;;
14205;SDS011;7186;48.800;9.216;2023-08-30T03:32:06;48.87;;;28.10;;
14205;SDS011;7186;48.800;9.216;2023-08-30T03:34:31;48.60;;;27.47;;
14205;SDS011;7186;48.800;9.216;2023-08-30T03:36:56;48.77;;;27.70;;
14205;SDS011;7186;48.800;9.216;2023-08-30T03:39:21;49.27;;;28.23;;
14205;SDS011;7186;48.800;9.216;2023-08-30T03:41:47;49.80;;;27.67;;
14205;SDS011;7186;48.800;9.216;2023-08-30T03:44:12;50.53;;;28.77;;
14205;SDS011;7186;48.800;9.216;2023-08-30T03:46:38;48.77;;;27.50;;
14205;SDS011;7186;48.800;9.216;2023-08-30T03:49:03;48.17;;;27.03;;
14205;SDS011;7186;48.800;9.216;2023-08-30T03:51:28;49.17;;;27.63;;
14205;SDS011;7186;48.800;9.216;2023-08-30T03:53:54;50.30;;;28.40;;
14205;SDS011;7186;48.800;9.216;2023-08-30T03:56:21;49.00;;;27.47;;
14205;SDS011;7186;48.800;9.216;2023-08-30T03:58:46;49.03;;;27.47;;
14205;SDS011;7186;48.800;9.216;2023-08-30T04:01:11;53.90;;;28.90;;
14205;SDS011;7186;48.800;9.216;2023-08-30T04:03:36;48.70;;;27.43;;
14205;SDS011;7186;48.800;9.216;2023-08-30T04:06:01;48.83;;;27.90;;
14205;SDS011;7186;48.800;9.216;2023-08-30T04:08:27;48.90;;;27.70;;
14205;SDS011;7186;48.800;9.216;2023-08-30T04:10:52;49.40;;;28.27;;
14205;SDS011;7186;48.800;9.216;2023-08-30T04:13:18;47.83;;;27.20;;
14205;SDS011;7186;48.800;9.216;2023-08-30T04:15:43;48.50;;;27.83;;
14205;SDS011;7186;48.800;9.216;2023-08-30T04:18:08;48.63;;;28.03;;
14205;SDS011;7186;48.800;9.216;2023-08-30T04:20:34;48.80;;;28.13;;
14205;SDS011;7186;48.800;9.216;2023-08-30T04:22:59;48.83;;;28.13;;
14205;SDS011;7186;48.800;9.216;2023-08-30T04:25:26;48.63;;;28.23;;
14205;SDS011;7186;48.800;9.216;2023-08-30T04:27:52;48.50;;;28.13;;
14205;SDS011;7186;48.800;9.216;2023-08-30T04:30:17;48.40;;;27.70;;
14205;SDS011;7186;48.800;9.216;2023-08-30T04:32:42;48.80;;;27.97;;
14205;SDS011;7186;48.800;9.216;2023-08-30T04:35:08;48.43;;;27.80;;
14205;SDS011;7186;48.800;9.216;2023-08-30T04:37:33;48.40;;;27.80;;
14205;SDS011;7186;48.800;9.216;2023-08-30T04:39:58;48.50;;;27.63;;
14205;SDS011;7186;48.800;9.216;2023-08-30T04:42:23;47.80;;;26.90;;
14205;SDS011;7186;48.800;9.216;2023-08-30T04:44:49;48.80;;;27.87;;
14205;SDS011;7186;48.800;9.216;2023-08-30T04:47:15;48.33;;;27.73;;
14205;SDS011;7186;48.800;9.216;2023-08-30T04:49:40;48.27;;;27.63;;
14205;SDS011;7186;48.800;9.216;2023-08-30T04:52:05;47.93;;;27.03;;
14205;SDS011;7186;48.800;9.216;2023-08-30T04:54:31;48.43;;;27.50;;
14205;SDS011;7186;48.800;9.216;2023-08-30T04:56:56;49.07;;;28.17;;
14205;SDS011;7186;48.800;9.216;2023-08-30T04:59:21;48.83;;;28.40;;
14205;SDS011;7186;48.800;9.216;2023-08-30T05:01:46;48.63;;;27.80;;
14205;SDS011;7186;48.800;9.216;2023-08-30T05:04:12;49.10;;;28.20;;
14205;SDS011;7186;48.800;9.216;2023-08-30T05:06:37;48.70;;;27.70;;
14205;SDS011;7186;48.800;9.216;2023-08-30T05:09:02;49.07;;;28.37;;
14205;SDS011;7186;48.800;9.216;2023-08-30T05:11:27;49.63;;;29.10;;
14205;SDS011;7186;48.800;9.216;2023-08-30T05:13:53;48.73;;;27.73;;
14205;SDS011;7186;48.800;9.216;2023-08-30T05:16:19;48.30;;;27.70;;
14205;SDS011;7186;48.800;9.216;2023-08-30T05:18:44;49.13;;;28.50;;
14205;SDS011;7186;48.800;9.216;2023-08-30T05:21:09;49.57;;;29.10;;
14205;SDS011;7186;48.800;9.216;2023-08-30T05:23:35;49.33;;;28.77;;
14205;SDS011;7186;48.800;9.216;2023-08-30T05:26:00;48.67;;;27.70;;
14205;SDS011;7186;48.800;9.216;2023-08-30T05:28:25;48.57;;;27.57;;
14205;SDS011;7186;48.800;9.216;2023-08-30T05:30:50;48.90;;;28.17;;
14205;SDS011;7186;48.800;9.216;2023-08-30T05:33:16;50.23;;;29.63;;
14205;SDS011;7186;48.800;9.216;2023-08-30T05:35:41;49.10;;;28.27;;
14205;SDS011;7186;48.800;9.216;2023-08-30T05:38:06;49.00;;;28.03;;
14205;SDS011;7186;48.800;9.216;2023-08-30T05:40:31;49.13;;;28.40;;
14205;SDS011;7186;48.800;9.216;2023-08-30T05:42:56;48.30;;;27.40;;
14205;SDS011;7186;48.800;9.216;2023-08-30T05:45:22;49.97;;;29.20;;
14205;SDS011;7186;48.800;9.216;2023-08-30T05:47:47;49.37;;;28.70;;
14205;SDS011;7186;48.800;9.216;2023-08-30T05:50:13;48.60;;;27.70;;
14205;SDS011;7186;48.800;9.216;2023-08-30T05:52:38;49.97;;;29.33;;
14205;SDS011;7186;48.800;9.216;2023-08-30T05:55:09;48.87;;;28.10;;
14205;SDS011;7186;48.800;9.216;2023-08-30T05:57:34;49.03;;;28.50;;
14205;SDS011;7186;48.800;9.216;2023-08-30T06:00:00;49.27;;;28.50;;
14205;SDS011;7186;48.800;9.216;2023-08-30T06:02:25;49.00;;;28.37;;
14205;SDS011;7186;48.800;9.216;2023-08-30T06:04:50;48.63;;;27.90;;
14205;SDS011;7186;48.800;9.216;2023-08-30T06:07:17;48.53;;;27.63;;
14205;SDS011;7186;48.800;9.216;2023-08-30T06:09:42;49.70;;;29.03;;
14205;SDS011;7186;48.800;9.216;2023-08-30T06:12:08;49.57;;;29.27;;
14205;SDS011;7186;48.800;9.216;2023-08-30T06:14:33;48.53;;;27.87;;
14205;SDS011;7186;48.800;9.216;2023-08-30T06:16:58;48.63;;;27.80;;
14205;SDS011;7186;48.800;9.216;2023-08-30T06:19:23;49.13;;;28.57;;
14205;SDS011;7186;48.800;9.216;2023-08-30T06:21:48;48.53;;;27.80;;
14205;SDS011;7186;48.800;9.216;2023-08-30T06:24:14;48.97;;;28.53;;
14205;SDS011;7186;48.800;9.216;2023-08-30T06:26:39;48.67;;;28.37;;
14205;SDS011;7186;48.800;9.216;2023-08-30T06:29:04;48.37;;;27.67;;
14205;SDS011;7186;48.800;9.216;2023-08-30T06:31:29;48.43;;;27.63;;
14205;SDS011;7186;48.800;9.216;2023-08-30T06:33:57;48.17;;;27.63;;
14205;SDS011;7186;48.800;9.216;2023-08-30T06:36:22;48.90;;;28.43;;
14205;SDS011;7186;48.800;9.216;2023-08-30T06:38:48;48.50;;;28.30;;
14205;SDS011;7186;48.800;9.216;2023-08-30T06:41:13;48.23;;;27.73;;
14205;SDS011;7186;48.800;9.216;2023-08-30T06:43:38;48.10;;;27.70;;
14205;SDS011;7186;48.800;9.216;2023-08-30T06:46:05;48.53;;;28.57;;
14205;SDS011;7186;48.800;9.216;2023-08-30T06:48:30;48.57;;;28.77;;
14205;SDS011;7186;48.800;9.216;2023-08-30T06:50:58;48.47;;;28.83;;
14205;SDS011;7186;48.800;9.216;2023-08-30T06:53:24;48.10;;;28.47;;
14205;SDS011;7186;48.800;9.216;2023-08-30T06:55:56;47.67;;;27.60;;
14205;SDS011;7186;48.800;9.216;2023-08-30T06:58:21;48.20;;;28.20;;
14205;SDS011;7186;48.800;9.216;2023-08-30T07:00:47;48.53;;;28.70;;
14205;SDS011;7186;48.800;9.216;2023-08-30T07:03:12;47.70;;;27.73;;
14205;SDS011;7186;48.800;9.216;2023-08-30T07:05:37;47.43;;;27.77;;
14205;SDS011;7186;48.800;9.216;2023-08-30T07:08:02;48.63;;;29.03;;
14205;SDS011;7186;48.800;9.216;2023-08-30T07:10:27;47.40;;;27.50;;
14205;SDS011;7186;48.800;9.216;2023-08-30T07:12:53;48.83;;;29.70;;
14205;SDS011;7186;48.800;9.216;2023-08-30T07:15:18;47.47;;;28.20;;
14205;SDS011;7186;48.800;9.216;2023-08-30T07:17:43;47.23;;;27.87;;
14205;SDS011;7186;48.800;9.216;2023-08-30T07:20:09;47.73;;;28.43;;
14205;SDS011;7186;48.800;9.216;2023-08-30T07:22:34;48.10;;;28.73;;
14205;SDS011;7186;48.800;9.216;2023-08-30T07:24:59;47.87;;;28.50;;
14205;SDS011;7186;48.800;9.216;2023-08-30T07:27:25;48.33;;;29.13;;
14205;SDS011;7186;48.800;9.216;2023-08-30T07:29:50;47.60;;;28.53;;
14205;SDS011;7186;48.800;9.216;2023-08-30T07:32:15;47.60;;;28.43;;
14205;SDS011;7186;48.800;9.216;2023-08-30T07:34:40;47.70;;;28.43;;
14205;SDS011;7186;48.800;9.216;2023-08-30T07:37:15;48.40;;;29.70;;
14205;SDS011;7186;48.800;9.216;2023-08-30T07:39:40;47.57;;;28.37;;
14205;SDS011;7186;48.800;9.216;2023-08-30T07:42:06;47.80;;;28.80;;
14205;SDS011;7186;48.800;9.216;2023-08-30T07:44:32;47.60;;;28.57;;
14205;SDS011;7186;48.800;9.216;2023-08-30T07:46:57;47.50;;;28.47;;
14205;SDS011;7186;48.800;9.216;2023-08-30T07:49:22;48.13;;;29.17;;
14205;SDS011;7186;48.800;9.216;2023-08-30T07:51:47;47.00;;;28.20;;
14205;SDS011;7186;48.800;9.216;2023-08-30T07:54:13;47.83;;;28.83;;
14205;SDS011;7186;48.800;9.216;2023-08-30T07:56:38;46.17;;;27.20;;
14205;SDS011;7186;48.800;9.216;2023-08-30T07:59:03;47.10;;;28.40;;
14205;SDS011;7186;48.800;9.216;2023-08-30T08:01:28;46.70;;;28.10;;
14205;SDS011;7186;48.800;9.216;2023-08-30T08:03:54;47.53;;;28.43;;
14205;SDS011;7186;48.800;9.216;2023-08-30T08:06:19;47.87;;;28.97;;
14205;SDS011;7186;48.800;9.216;2023-08-30T08:08:44;47.53;;;28.50;;
14205;SDS011;7186;48.800;9.216;2023-08-30T08:11:09;46.77;;;27.83;;
14205;SDS011;7186;48.800;9.216;2023-08-30T08:13:34;46.93;;;28.00;;
14205;SDS011;7186;48.800;9.216;2023-08-30T08:16:00;47.30;;;28.83;;
14205;SDS011;7186;48.800;9.216;2023-08-30T08:18:25;47.27;;;28.60;;
14205;SDS011;7186;48.800;9.216;2023-08-30T08:20:52;47.27;;;28.50;;
14205;SDS011;7186;48.800;9.216;2023-08-30T08:23:17;46.40;;;27.80;;
14205;SDS011;7186;48.800;9.216;2023-08-30T08:25:42;46.40;;;27.57;;
14205;SDS011;7186;48.800;9.216;2023-08-30T08:28:08;46.40;;;27.67;;
14205;SDS011;7186;48.800;9.216;2023-08-30T08:30:33;45.93;;;27.43;;
14205;SDS011;7186;48.800;9.216;2023-08-30T08:32:58;46.13;;;27.43;;
14205;SDS011;7186;48.800;9.216;2023-08-30T08:35:24;45.97;;;27.27;;
14205;SDS011;7186;48.800;9.216;2023-08-30T08:37:49;45.33;;;27.00;;
14205;SDS011;7186;48.800;9.216;2023-08-30T08:40:15;46.00;;;27.43;;
14205;SDS011;7186;48.800;9.216;2023-08-30T08:42:41;46.47;;;28.37;;
14205;SDS011;7186;48.800;9.216;2023-08-30T08:45:06;45.00;;;26.83;;
14205;SDS011;7186;48.800;9.216;2023-08-30T08:47:33;45.63;;;27.67;;
14205;SDS011;7186;48.800;9.216;2023-08-30T08:49:58;46.23;;;28.03;;
14205;SDS011;7186;48.800;9.216;2023-08-30T08:52:25;45.43;;;27.60;;
14205;SDS011;7186;48.800;9.216;2023-08-30T08:54:50;45.03;;;27.40;;
14205;SDS011;7186;48.800;9.216;2023-08-30T08:57:16;44.77;;;27.17;;
14205;SDS011;7186;48.800;9.216;2023-08-30T08:59:42;45.03;;;27.87;;
14205;SDS011;7186;48.800;9.216;2023-08-30T09:02:08;44.70;;;27.33;;
14205;SDS011;7186;48.800;9.216;2023-08-30T09:04:35;44.10;;;27.17;;
14205;SDS011;7186;48.800;9.216;2023-08-30T09:07:00;43.50;;;26.90;;
14205;SDS011;7186;48.800;9.216;2023-08-30T09:09:26;44.37;;;28.30;;
14205;SDS011;7186;48.800;9.216;2023-08-30T09:11:51;42.67;;;26.77;;
14205;SDS011;7186;48.800;9.216;2023-08-30T09:14:17;41.93;;;26.77;;
14205;SDS011;7186;48.800;9.216;2023-08-30T09:16:42;41.37;;;26.93;;
14205;SDS011;7186;48.800;9.216;2023-08-30T09:19:07;40.83;;;26.70;;
14205;SDS011;7186;48.800;9.216;2023-08-30T09:21:35;40.63;;;27.47;;
14205;SDS011;7186;48.800;9.216;2023-08-30T09:24:04;40.20;;;27.00;;
14205;SDS011;7186;48.800;9.216;2023-08-30T09:26:31;38.47;;;25.70;;
14205;SDS011;7186;48.800;9.216;2023-08-30T09:29:06;37.50;;;25.57;;
14205;SDS011;7186;48.800;9.216;2023-08-30T09:31:34;36.97;;;26.03;;
14205;SDS011;7186;48.800;9.216;2023-08-30T09:34:01;36.43;;;26.00;;
14205;SDS011;7186;48.800;9.216;2023-08-30T09:36:27;36.13;;;26.00;;
14205;SDS011;7186;48.800;9.216;2023-08-30T09:38:52;34.73;;;25.10;;
14205;SDS011;7186;48.800;9.216;2023-08-30T09:41:17;33.30;;;25.00;;
14205;SDS011;7186;48.800;9.216;2023-08-30T09:43:43;34.43;;;25.60;;
14205;SDS011;7186;48.800;9.216;2023-08-30T09:46:08;33.63;;;25.23;;
14205;SDS011;7186;48.800;9.216;2023-08-30T09:48:34;32.87;;;24.37;;
14205;SDS011;7186;48.800;9.216;2023-08-30T09:50:59;32.37;;;25.03;;
14205;SDS011;7186;48.800;9.216;2023-08-30T09:53:28;30.43;;;23.37;;
14205;SDS011;7186;48.800;9.216;2023-08-30T09:55:55;30.27;;;24.03;;
14205;SDS011;7186;48.800;9.216;2023-08-30T09:58:21;29.40;;;23.37;;
14205;SDS011;7186;48.800;9.216;2023-08-30T10:00:48;29.77;;;24.13;;
14205;SDS011;7186;48.800;9.216;2023-08-30T10:03:13;29.37;;;24.60;;
14205;SDS011;7186;48.800;9.216;2023-08-30T10:05:39;27.63;;;22.97;;
14205;SDS011;7186;48.800;9.216;2023-08-30T10:08:06;27.47;;;23.17;;
14205;SDS011;7186;48.800;9.216;2023-08-30T10:10:32;27.70;;;23.90;;
14205;SDS011;7186;48.800;9.216;2023-08-30T10:12:57;27.97;;;23.93;;
14205;SDS011;7186;48.800;9.216;2023-08-30T10:15:23;26.43;;;22.30;;
14205;SDS011;7186;48.800;9.216;2023-08-30T10:17:51;27.20;;;23.57;;
14205;SDS011;7186;48.800;9.216;2023-08-30T10:20:17;25.83;;;22.37;;
14205;SDS011;7186;48.800;9.216;2023-08-30T10:22:43;24.73;;;21.63;;
14205;SDS011;7186;48.800;9.216;2023-08-30T10:25:17;24.97;;;22.27;;
14205;SDS011;7186;48.800;9.216;2023-08-30T10:27:45;24.73;;;22.07;;
14205;SDS011;7186;48.800;9.216;2023-08-30T10:30:11;24.93;;;22.20;;
14205;SDS011;7186;48.800;9.216;2023-08-30T10:32:41;23.13;;;20.63;;
14205;SDS011;7186;48.800;9.216;2023-08-30T10:35:06;23.47;;;20.97;;
14205;SDS011;7186;48.800;9.216;2023-08-30T10:37:32;23.87;;;21.37;;
14205;SDS011;7186;48.800;9.216;2023-08-30T10:40:00;24.93;;;22.33;;
14205;SDS011;7186;48.800;9.216;2023-08-30T10:42:29;23.63;;;21.23;;
14205;SDS011;7186;48.800;9.216;2023-08-30T10:47:32;22.87;;;20.60;;
14205;SDS011;7186;48.800;9.216;2023-08-30T10:50:02;22.50;;;20.30;;
14205;SDS011;7186;48.800;9.216;2023-08-30T10:52:29;22.63;;;20.43;;
14205;SDS011;7186;48.800;9.216;2023-08-30T10:55:04;22.93;;;20.73;;
14205;SDS011;7186;48.800;9.216;2023-08-30T10:57:29;22.93;;;20.73;;
14205;SDS011;7186;48.800;9.216;2023-08-30T11:02:49;22.37;;;20.17;;
14205;SDS011;7186;48.800;9.216;2023-08-30T11:05:19;21.47;;;19.40;;
14205;SDS011;7186;48.800;9.216;2023-08-30T11:07:45;21.53;;;19.63;;
14205;SDS011;7186;48.800;9.216;2023-08-30T11:10:11;19.63;;;18.03;;
14205;SDS011;7186;48.800;9.216;2023-08-30T11:12:39;20.30;;;18.63;;
14205;SDS011;7186;48.800;9.216;2023-08-30T11:15:06;20.53;;;18.83;;
14205;SDS011;7186;48.800;9.216;2023-08-30T11:17:31;20.93;;;19.23;;
14205;SDS011;7186;48.800;9.216;2023-08-30T11:20:06;20.73;;;19.03;;
14205;SDS011;7186;48.800;9.216;2023-08-30T11:22:32;22.70;;;20.70;;
14205;SDS011;7186;48.800;9.216;2023-08-30T11:24:57;23.37;;;21.27;;
14205;SDS011;7186;48.800;9.216;2023-08-30T11:27:23;22.67;;;20.67;;
14205;SDS011;7186;48.800;9.216;2023-08-30T11:29:48;21.53;;;19.63;;
14205;SDS011;7186;48.800;9.216;2023-08-30T11:32:13;21.53;;;19.57;;
14205;SDS011;7186;48.800;9.216;2023-08-30T11:34:38;23.27;;;21.17;;
14205;SDS011;7186;48.800;9.216;2023-08-30T11:37:04;21.23;;;19.33;;
14205;SDS011;7186;48.800;9.216;2023-08-30T11:39:29;22.90;;;20.80;;
14205;SDS011;7186;48.800;9.216;2023-08-30T11:41:54;22.10;;;20.07;;
14205;SDS011;7186;48.800;9.216;2023-08-30T11:44:22;20.20;;;18.40;;
14205;SDS011;7186;48.800;9.216;2023-08-30T11:46:48;20.90;;;19.00;;
14205;SDS011;7186;48.800;9.216;2023-08-30T11:49:14;23.23;;;21.07;;
14205;SDS011;7186;48.800;9.216;2023-08-30T11:51:40;22.37;;;20.27;;
14205;SDS011;7186;48.800;9.216;2023-08-30T11:54:05;23.93;;;21.63;;
14205;SDS011;7186;48.800;9.216;2023-08-30T11:56:32;24.03;;;21.73;;
14205;SDS011;7186;48.800;9.216;2023-08-30T11:58:58;23.10;;;20.80;;
14205;SDS011;7186;48.800;9.216;2023-08-30T12:01:24;23.67;;;21.17;;
14205;SDS011;7186;48.800;9.216;2023-08-30T12:03:49;25.63;;;22.87;;
14205;SDS011;7186;48.800;9.216;2023-08-30T12:06:15;25.93;;;22.30;;
14205;SDS011;7186;48.800;9.216;2023-08-30T12:08:41;27.93;;;23.07;;
14205;SDS011;7186;48.800;9.216;2023-08-30T12:11:16;29.83;;;23.13;;
14205;SDS011;7186;48.800;9.216;2023-08-30T12:13:41;32.50;;;24.30;;
14205;SDS011;7186;48.800;9.216;2023-08-30T12:16:07;34.73;;;25.80;;
14205;SDS011;7186;48.800;9.216;2023-08-30T12:18:32;36.37;;;25.77;;
14205;SDS011;7186;48.800;9.216;2023-08-30T12:21:01;37.17;;;25.97;;
14205;SDS011;7186;48.800;9.216;2023-08-30T12:23:29;39.10;;;27.83;;
14205;SDS011;7186;48.800;9.216;2023-08-30T12:26:04;38.00;;;26.67;;
14205;SDS011;7186;48.800;9.216;2023-08-30T12:28:30;38.30;;;27.30;;
14205;SDS011;7186;48.800;9.216;2023-08-30T12:30:55;35.07;;;24.93;;
14205;SDS011;7186;48.800;9.216;2023-08-30T12:33:21;35.60;;;25.23;;
14205;SDS011;7186;48.800;9.216;2023-08-30T12:35:46;35.43;;;25.90;;
14205;SDS011;7186;48.800;9.216;2023-08-30T12:38:12;35.57;;;25.87;;
14205;SDS011;7186;48.800;9.216;2023-08-30T12:40:37;33.83;;;25.53;;
14205;SDS011;7186;48.800;9.216;2023-08-30T12:43:03;34.27;;;25.57;;
14205;SDS011;7186;48.800;9.216;2023-08-30T12:45:28;33.23;;;26.00;;
14205;SDS011;7186;48.800;9.216;2023-08-30T12:47:54;32.17;;;24.97;;
14205;SDS011;7186;48.800;9.216;2023-08-30T12:50:20;32.23;;;25.37;;
14205;SDS011;7186;48.800;9.216;2023-08-30T12:52:46;31.17;;;24.57;;
14205;SDS011;7186;48.800;9.216;2023-08-30T12:55:11;30.57;;;23.93;;
14205;SDS011;7186;48.800;9.216;2023-08-30T12:57:37;30.43;;;24.10;;
14205;SDS011;7186;48.800;9.216;2023-08-30T13:00:02;30.30;;;24.70;;
14205;SDS011;7186;48.800;9.216;2023-08-30T13:02:28;29.63;;;23.67;;
14205;SDS011;7186;48.800;9.216;2023-08-30T13:04:53;29.77;;;24.27;;
14205;SDS011;7186;48.800;9.216;2023-08-30T13:07:18;28.23;;;22.60;;
14205;SDS011;7186;48.800;9.216;2023-08-30T13:09:43;28.90;;;24.23;;
14205;SDS011;7186;48.800;9.216;2023-08-30T13:12:08;27.40;;;23.03;;
14205;SDS011;7186;48.800;9.216;2023-08-30T13:14:34;27.17;;;23.20;;
14205;SDS011;7186;48.800;9.216;2023-08-30T13:16:59;26.97;;;24.07;;
14205;SDS011;7186;48.800;9.216;2023-08-30T13:19:24;26.70;;;23.80;;
14205;SDS011;7186;48.800;9.216;2023-08-30T13:21:50;25.80;;;22.70;;
14205;SDS011;7186;48.800;9.216;2023-08-30T13:24:15;25.00;;;22.30;;
14205;SDS011;7186;48.800;9.216;2023-08-30T13:26:40;24.37;;;21.77;;
14205;SDS011;7186;48.800;9.216;2023-08-30T13:29:06;23.90;;;21.40;;
14205;SDS011;7186;48.800;9.216;2023-08-30T13:31:31;25.00;;;22.40;;
14205;SDS011;7186;48.800;9.216;2023-08-30T13:33:56;23.20;;;20.70;;
14205;SDS011;7186;48.800;9.216;2023-08-30T13:36:21;23.60;;;21.10;;
14205;SDS011;7186;48.800;9.216;2023-08-30T13:38:47;22.80;;;20.40;;
14205;SDS011;7186;48.800;9.216;2023-08-30T13:41:12;23.03;;;20.73;;
14205;SDS011;7186;48.800;9.216;2023-08-30T13:43:37;23.10;;;20.80;;
14205;SDS011;7186;48.800;9.216;2023-08-30T13:46:02;22.50;;;20.30;;
14205;SDS011;7186;48.800;9.216;2023-08-30T13:48:28;22.37;;;20.27;;
14205;SDS011;7186;48.800;9.216;2023-08-30T13:50:53;21.50;;;19.50;;
14205;SDS011;7186;48.800;9.216;2023-08-30T13:53:18;21.90;;;19.90;;
14205;SDS011;7186;48.800;9.216;2023-08-30T13:55:46;21.03;;;19.13;;
14205;SDS011;7186;48.800;9.216;2023-08-30T13:58:15;20.93;;;19.13;;
14205;SDS011;7186;48.800;9.216;2023-08-30T14:00:40;20.77;;;18.87;;
14205;SDS011;7186;48.800;9.216;2023-08-30T14:03:05;21.03;;;19.13;;
14205;SDS011;7186;48.800;9.216;2023-08-30T14:05:31;21.97;;;20.07;;
14205;SDS011;7186;48.800;9.216;2023-08-30T14:07:56;21.93;;;20.03;;
14205;SDS011;7186;48.800;9.216;2023-08-30T14:10:21;20.20;;;18.50;;
14205;SDS011;7186;48.800;9.216;2023-08-30T14:12:46;18.20;;;16.80;;
14205;SDS011;7186;48.800;9.216;2023-08-30T14:15:12;20.27;;;18.67;;
14205;SDS011;7186;48.800;9.216;2023-08-30T14:17:37;19.53;;;17.93;;
14205;SDS011;7186;48.800;9.216;2023-08-30T14:20:03;18.73;;;17.23;;
14205;SDS011;7186;48.800;9.216;2023-08-30T14:22:28;17.80;;;16.40;;
14205;SDS011;7186;48.800;9.216;2023-08-30T14:24:53;18.50;;;17.00;;
14205;SDS011;7186;48.800;9.216;2023-08-30T14:27:18;19.33;;;17.73;;
14205;SDS011;7186;48.800;9.216;2023-08-30T14:29:43;21.37;;;19.47;;
14205;SDS011;7186;48.800;9.216;2023-08-30T14:32:09;20.77;;;18.87;;
14205;SDS011;7186;48.800;9.216;2023-08-30T14:34:34;20.20;;;18.40;;